Pagrindinis puslapis
METAR-TAF:

METAR-TAF

Oro uostai :

Hasvik, Norvegija

platuma: 70-29N, ilguma: 022-09E, Aukštis: 10 m

Dabartinis oras

Ataskaita buvo paskelbta 1 valandą ir 4 minutes, ne 19:50 UTC
Vėjas 25 kt iš Vakarų
Temperatūra -1°C
Drėgmė 69%
Slėgis 999 hPa
Matomumas 10 km arba daugiau
Mažai debesys ne aukštis 4100 ft
Išsisklaidę debesys ne aukštis 5500 ft
Liūtis kaimynystėje, Sniego pustymas pažeme

METAR: ENHK 251950Z 28025KT 9999 VCSH DRSN FEW041 SCT055 M01/M06 Q0999

Laikas: 21:54 (20:54 UTC)


TAF: trūkstamas

Orai ataskaitas ir orų prognozės (METAR, TAF).

turimą stotys yra geltonos ir raudonos taškus žemėlapyje.

Perkelti pele per norėdami pamatyti stoties vardą.

Tada spustelėkite, norėdami matyti oro stebėjimo ir prognozės.

Norėdami pakeisti žemėlapį: spustelėkite ant žalios mygtukų su juodo kryžiaus žemyn,; žalią mygtuką su brūkšneliu, jei norite nutolinti; arba žalių rodyklių gretimoms žemėlapius.


METAR-TAF: